Inuvik, Canada
Current Conditions -  °F | °C
As of 3:00 AM on Saturday 25 Oct 2014 (Local Time) from CYEV Reporting Station
Overcast Overcast  
Wind Chill:   Ceiling: 10000
Heat Index: 10°   Visibility: 15mi
Dew Point:   Wind: 5mph
Humidity: 85%   Direction: 100°E
Pressure: 29.89"   Gusts: NA
Location:  68.36°N, 133.73°W
Report Text: CYEV 250900Z 10004KT 15SM OVC100 M12/M14 A2989 RMK AC8 SLP130
Loading
Personal Weather Stations






























Interactive Weather Map
Tropical Storm Tracking
New forecast layout! Learn more

10-Day Weather Forecast

Advertisements
Track Severe Weather on mobile